Weather at Johnson County Executive Airport

Public forecast

Using degrees Fahrenheit for public forecast. Weather courtesy of forecast.io.

Current aviation weather report (METAR) for Johnson County Executive Airport

2024/06/22 09:53 (retrieved 52 minutes ago)

KOJC 220953Z AUTO 19011G17KT 10SM CLR 24/18 A3000 RMK AO2 SLP144 T02440183

Closest aviation forecast (TAF) to Johnson County Executive Airport

Closest forecast is New Century AirCenter Airport, 7.2 nm (13.4 km) W.

2024/06/22 06:33 (retrieved 4 hours ago)

TAF KIXD 220530Z 2206/2306 18007KT P6SM BKN250 FM221300 20012G21KT P6SM SCT250 FM222300 23011G19KT P6SM SCT190 FM230000 23011G19KT 6SM -SHRA VCTS SCT190CB FM230300 28008KT P6SM BKN190